Time;durP1;ratioP1;P1;durP2;ratioP2;P2;SDS_P1;SDS_P2;PMS_P1;PMS_P2;Temp;Humidity;BMP_temperature;BMP_pressure;BME280_temperature;BME280_humidity;BME280_pressure;Samples;Min_cycle;Max_cycle;Signal;HPM_P1;HPM_P2
2021/05/28 00:00:47;;;;;;;11.00;8.50;;;11.40;99.90;;;;;;5053418;28;20170;-73
2021/05/28 00:03:12;;;;;;;10.43;8.30;;;11.40;99.90;;;;;;5052995;28;20201;-72
2021/05/28 00:05:39;;;;;;;13.93;8.30;;;11.20;99.90;;;;;;5052343;28;20240;-72
2021/05/28 00:08:04;;;;;;;10.47;8.40;;;11.20;99.90;;;;;;5056181;28;20182;-73
2021/05/28 00:10:30;;;;;;;13.00;9.13;;;11.20;99.90;;;;;;5056764;28;20435;-72
2021/05/28 00:12:56;;;;;;;13.00;8.53;;;11.20;99.90;;;;;;5057165;28;20546;-73
2021/05/28 00:15:21;;;;;;;13.93;9.33;;;11.20;99.90;;;;;;5057807;28;20257;-73
2021/05/28 00:17:47;;;;;;;11.83;9.50;;;11.20;99.90;;;;;;5056734;28;20178;-73
2021/05/28 00:20:14;;;;;;;15.23;9.40;;;11.20;99.90;;;;;;5057210;28;20250;-73
2021/05/28 00:22:41;;;;;;;13.00;9.10;;;11.20;99.90;;;;;;5056691;28;20205;-73
2021/05/28 00:25:07;;;;;;;11.87;9.60;;;11.20;99.90;;;;;;5057030;28;20519;-72
2021/05/28 00:27:32;;;;;;;11.43;9.50;;;11.20;99.90;;;;;;5053105;28;20432;-72
2021/05/28 00:29:59;;;;;;;11.70;9.50;;;11.20;99.90;;;;;;5052911;28;20780;-72
2021/05/28 00:32:25;;;;;;;12.83;9.53;;;11.20;99.90;;;;;;5053038;28;20243;-72
2021/05/28 00:34:50;;;;;;;11.70;8.57;;;11.10;99.90;;;;;;5053231;28;20432;-72
2021/05/28 00:37:17;;;;;;;10.23;8.93;;;11.10;99.90;;;;;;5052814;28;20175;-72
2021/05/28 00:39:42;;;;;;;9.10;8.20;;;11.00;99.90;;;;;;5052923;28;20262;-73
2021/05/28 00:42:08;;;;;;;14.93;8.70;;;11.00;99.90;;;;;;5052600;28;20546;-73
2021/05/28 00:44:34;;;;;;;10.00;9.00;;;11.00;99.90;;;;;;5051207;28;20186;-73
2021/05/28 00:46:59;;;;;;;10.90;8.70;;;11.00;99.90;;;;;;5052963;28;20173;-73
2021/05/28 00:49:25;;;;;;;13.33;9.67;;;11.10;99.90;;;;;;5058732;28;20192;-70
2021/05/28 00:51:51;;;;;;;10.20;8.27;;;11.00;99.90;;;;;;5062718;28;20189;-71
2021/05/28 00:54:16;;;;;;;8.87;7.33;;;11.10;99.90;;;;;;5057017;28;20170;-72
2021/05/28 00:56:43;;;;;;;9.70;8.17;;;11.10;99.90;;;;;;5056348;28;20454;-72
2021/05/28 00:59:09;;;;;;;13.37;7.37;;;11.10;99.90;;;;;;5056465;28;20251;-71
2021/05/28 01:01:35;;;;;;;8.57;7.80;;;11.10;99.90;;;;;;5056004;28;20999;-72
2021/05/28 01:04:02;;;;;;;9.07;7.43;;;11.10;99.90;;;;;;5055879;28;20463;-71
2021/05/28 01:06:27;;;;;;;16.00;8.37;;;11.10;99.90;;;;;;5056347;28;20416;-71
2021/05/28 01:08:54;;;;;;;10.47;7.57;;;11.10;99.90;;;;;;5056298;28;20415;-71
2021/05/28 01:11:21;;;;;;;10.43;7.50;;;11.10;99.90;;;;;;5056456;28;20215;-71
2021/05/28 01:13:47;;;;;;;18.80;9.10;;;11.10;99.90;;;;;;5056068;28;20421;-71
2021/05/28 01:16:12;;;;;;;8.87;8.07;;;11.10;99.90;;;;;;5065270;28;20890;-71
2021/05/28 01:18:38;;;;;;;11.47;8.70;;;11.10;99.90;;;;;;5058063;28;20212;-72
2021/05/28 01:21:04;;;;;;;15.13;8.93;;;11.00;99.90;;;;;;5056118;28;20175;-72
2021/05/28 01:23:30;;;;;;;9.80;8.85;;;11.00;99.90;;;;;;5055080;28;20447;-72
2021/05/28 01:25:56;;;;;;;11.30;9.10;;;11.00;99.90;;;;;;5055490;28;20532;-72
2021/05/28 01:28:21;;;;;;;11.17;9.10;;;10.90;99.90;;;;;;5055461;28;20204;-72
2021/05/28 01:30:47;;;;;;;11.20;8.65;;;10.90;99.90;;;;;;5055223;28;20420;-72
2021/05/28 01:33:12;;;;;;;11.30;7.80;;;10.90;99.90;;;;;;5055381;28;20198;-71
2021/05/28 01:35:38;;;;;;;9.60;7.77;;;11.00;99.90;;;;;;5055589;28;20198;-72
2021/05/28 01:38:05;;;;;;;11.67;8.80;;;11.00;99.90;;;;;;5055976;28;20594;-72
2021/05/28 01:40:32;;;;;;;12.40;8.73;;;11.00;99.90;;;;;;5055244;28;20188;-72
2021/05/28 01:42:58;;;;;;;11.13;9.10;;;10.90;99.90;;;;;;5057153;28;20876;-72
2021/05/28 01:45:24;;;;;;;15.87;9.70;;;10.90;99.90;;;;;;5057408;28;20471;-72
2021/05/28 01:47:50;;;;;;;21.50;9.40;;;10.90;99.90;;;;;;5058018;28;20655;-72
2021/05/28 01:50:15;;;;;;;12.90;9.33;;;10.90;99.90;;;;;;5057736;28;20429;-72
2021/05/28 01:52:42;;;;;;;14.63;10.47;;;10.90;99.90;;;;;;5061278;28;20486;-72
2021/05/28 01:55:09;;;;;;;15.83;10.70;;;10.90;99.90;;;;;;5074598;28;20194;-73
2021/05/28 01:57:35;;;;;;;9.60;8.70;;;10.90;99.90;;;;;;5075354;28;20401;-72
2021/05/28 02:00:02;;;;;;;14.83;10.80;;;10.90;99.90;;;;;;5055259;28;20437;-71
2021/05/28 02:02:27;;;;;;;12.13;10.17;;;10.90;99.90;;;;;;5054280;28;20480;-72
2021/05/28 02:04:53;;;;;;;11.50;10.30;;;10.80;99.90;;;;;;5055857;28;20436;-73
2021/05/28 02:07:18;;;;;;;14.90;10.70;;;10.80;99.90;;;;;;5055080;28;20177;-71
2021/05/28 02:09:44;;;;;;;14.60;10.47;;;10.80;99.90;;;;;;5054096;28;20201;-72
2021/05/28 02:12:09;;;;;;;15.40;9.40;;;10.90;99.90;;;;;;5054957;28;20200;-72
2021/05/28 02:14:35;;;;;;;13.30;9.83;;;11.00;99.90;;;;;;5055045;28;20222;-71
2021/05/28 02:17:02;;;;;;;12.53;10.53;;;10.90;99.90;;;;;;5054605;28;20190;-71
2021/05/28 02:19:27;;;;;;;17.73;11.40;;;10.90;99.90;;;;;;5054756;28;20196;-71
2021/05/28 02:21:53;;;;;;;17.80;11.93;;;11.00;99.90;;;;;;5054999;28;20547;-71
2021/05/28 02:24:19;;;;;;;14.03;10.97;;;11.00;99.90;;;;;;5054263;28;20182;-72
2021/05/28 02:26:46;;;;;;;13.63;11.50;;;11.00;99.90;;;;;;5054842;28;20409;-71
2021/05/28 02:29:15;;;;;;;16.60;11.27;;;10.90;99.90;;;;;;5048094;28;20447;-71
2021/05/28 02:31:41;;;;;;;17.70;13.47;;;10.90;99.90;;;;;;5033904;28;20413;-71
2021/05/28 02:34:08;;;;;;;16.43;12.10;;;10.90;99.90;;;;;;5040918;28;20474;-72
2021/05/28 02:36:33;;;;;;;15.23;12.47;;;10.90;99.90;;;;;;5054182;28;20933;-71
2021/05/28 02:38:59;;;;;;;15.30;13.13;;;10.90;99.90;;;;;;5054403;28;20490;-71
2021/05/28 02:41:25;;;;;;;15.37;12.40;;;10.80;99.90;;;;;;5054386;28;20209;-72
2021/05/28 02:43:51;;;;;;;16.50;13.60;;;10.80;99.90;;;;;;5054178;28;20193;-72
2021/05/28 02:46:16;;;;;;;18.87;14.47;;;10.70;99.90;;;;;;5054401;28;20480;-72
2021/05/28 02:48:42;;;;;;;17.93;14.77;;;10.80;99.90;;;;;;5054116;28;20174;-71
2021/05/28 02:51:07;;;;;;;20.33;15.20;;;10.70;99.90;;;;;;5054564;28;20213;-71
2021/05/28 02:53:34;;;;;;;19.77;15.90;;;10.70;99.90;;;;;;5053822;28;20243;-71
2021/05/28 02:56:08;;;;;;;25.10;16.30;;;10.60;99.90;;;;;;5054011;28;20277;-71
2021/05/28 02:58:34;;;;;;;25.70;16.50;;;10.70;99.90;;;;;;5054138;28;20435;-72
2021/05/28 03:01:00;;;;;;;23.07;16.90;;;10.70;99.90;;;;;;5053168;28;20921;-72
2021/05/28 03:03:25;;;;;;;21.03;16.83;;;10.60;99.90;;;;;;5053615;28;20229;-72
2021/05/28 03:05:52;;;;;;;23.20;17.57;;;10.60;99.90;;;;;;5054167;28;20202;-72
2021/05/28 03:08:18;;;;;;;28.40;18.10;;;10.60;99.90;;;;;;5053703;28;20256;-72
2021/05/28 03:10:44;;;;;;;25.90;18.17;;;10.60;99.90;;;;;;5053831;28;20404;-71
2021/05/28 03:13:10;;;;;;;27.20;18.70;;;10.60;99.90;;;;;;5053600;28;20841;-72
2021/05/28 03:15:35;;;;;;;33.47;20.43;;;10.50;99.90;;;;;;5053763;28;20985;-71
2021/05/28 03:18:02;;;;;;;32.07;20.33;;;10.50;99.90;;;;;;5053665;28;20447;-71
2021/05/28 03:20:35;;;;;;;28.60;19.70;;;10.40;99.90;;;;;;5053396;28;20441;-71
2021/05/28 03:23:03;;;;;;;32.10;21.00;;;10.40;99.90;;;;;;5053637;28;20508;-71
2021/05/28 03:25:28;;;;;;;27.33;20.70;;;10.40;99.90;;;;;;5053599;28;20928;-71
2021/05/28 03:27:54;;;;;;;31.60;20.30;;;10.50;99.90;;;;;;5053419;28;20478;-72
2021/05/28 03:30:20;;;;;;;32.47;21.20;;;10.60;99.90;;;;;;5052469;28;20174;-72
2021/05/28 03:32:46;;;;;;;30.17;20.63;;;10.60;99.90;;;;;;5052457;28;20205;-71
2021/05/28 03:35:12;;;;;;;35.37;21.40;;;10.60;99.90;;;;;;5052428;28;20444;-71
2021/05/28 03:37:39;;;;;;;30.83;20.20;;;10.60;99.90;;;;;;5053594;28;20432;-71
2021/05/28 03:40:06;;;;;;;31.97;19.57;;;10.70;99.90;;;;;;5053213;28;20404;-72
2021/05/28 03:42:32;;;;;;;32.57;20.93;;;10.80;99.90;;;;;;5053018;28;20456;-72
2021/05/28 03:44:57;;;;;;;31.73;20.97;;;10.80;99.90;;;;;;5053134;28;20454;-71
2021/05/28 03:47:23;;;;;;;31.37;19.63;;;10.80;99.90;;;;;;5053435;28;20178;-72
2021/05/28 03:49:48;;;;;;;32.67;20.33;;;10.90;99.90;;;;;;5053684;28;20170;-71
2021/05/28 03:52:14;;;;;;;29.97;21.93;;;11.00;99.90;;;;;;5053195;28;20248;-72
2021/05/28 03:54:40;;;;;;;29.60;20.60;;;11.00;99.90;;;;;;5053190;28;20579;-71
2021/05/28 03:57:06;;;;;;;26.43;20.03;;;11.00;99.90;;;;;;5053298;28;20554;-71
2021/05/28 03:59:32;;;;;;;29.97;20.50;;;11.00;99.90;;;;;;5053183;28;20428;-72
2021/05/28 04:01:58;;;;;;;25.27;18.90;;;11.00;99.90;;;;;;5052911;28;20230;-72
2021/05/28 04:04:23;;;;;;;29.37;19.93;;;10.90;99.90;;;;;;5053098;28;20411;-71
2021/05/28 04:06:49;;;;;;;28.50;18.20;;;10.90;99.90;;;;;;5052887;28;20239;-72
2021/05/28 04:09:15;;;;;;;26.90;19.43;;;10.80;99.90;;;;;;5057498;28;20216;-71
2021/05/28 04:11:40;;;;;;;26.23;18.53;;;10.80;99.90;;;;;;5060224;28;20229;-72
2021/05/28 04:14:06;;;;;;;24.33;17.73;;;10.70;99.90;;;;;;5051882;28;20182;-72
2021/05/28 04:16:32;;;;;;;22.13;17.57;;;10.80;99.90;;;;;;5053142;28;20202;-71
2021/05/28 04:18:57;;;;;;;20.33;15.73;;;10.60;99.90;;;;;;5052581;28;20192;-72
2021/05/28 04:21:23;;;;;;;21.50;15.40;;;10.60;99.90;;;;;;5052437;28;20178;-72
2021/05/28 04:23:49;;;;;;;19.13;15.87;;;10.60;99.90;;;;;;5053957;28;20202;-72
2021/05/28 04:26:14;;;;;;;22.90;17.80;;;10.60;99.90;;;;;;5056536;28;20428;-72
2021/05/28 04:28:40;;;;;;;19.93;16.23;;;10.50;99.90;;;;;;5054701;28;20197;-73
2021/05/28 04:31:05;;;;;;;26.40;16.73;;;10.50;99.90;;;;;;5056811;28;20186;-72
2021/05/28 04:33:31;;;;;;;21.70;17.70;;;10.50;99.90;;;;;;5056551;28;20178;-70
2021/05/28 04:35:57;;;;;;;20.73;15.30;;;10.50;99.90;;;;;;5059912;28;20186;-70
2021/05/28 04:38:22;;;;;;;21.13;17.73;;;10.60;99.90;;;;;;5057347;28;20183;-72
2021/05/28 04:40:49;;;;;;;20.20;16.10;;;10.60;99.90;;;;;;5057896;28;20170;-71
2021/05/28 04:43:15;;;;;;;21.23;15.53;;;10.60;99.90;;;;;;5058524;28;20221;-72
2021/05/28 04:45:41;;;;;;;18.77;16.30;;;10.60;99.90;;;;;;5058182;28;20723;-71
2021/05/28 04:48:06;;;;;;;21.50;15.80;;;10.60;99.90;;;;;;5056132;28;20201;-72
2021/05/28 04:50:32;;;;;;;21.00;15.20;;;10.60;99.90;;;;;;5055692;28;20178;-71
2021/05/28 04:52:59;;;;;;;23.50;17.17;;;10.60;99.90;;;;;;5055611;28;20927;-72
2021/05/28 04:55:26;;;;;;;17.37;13.70;;;10.70;99.90;;;;;;5056706;28;20198;-71
2021/05/28 04:57:52;;;;;;;16.67;14.30;;;10.80;99.90;;;;;;5056020;28;20419;-72
2021/05/28 05:00:19;;;;;;;17.40;13.23;;;10.90;99.90;;;;;;5055791;28;20470;-71
2021/05/28 05:02:45;;;;;;;22.40;14.93;;;11.00;99.90;;;;;;5054989;28;20464;-72
2021/05/28 05:05:11;;;;;;;17.77;13.10;;;11.10;99.90;;;;;;5056128;28;20519;-72
2021/05/28 05:07:36;;;;;;;19.53;13.53;;;11.10;99.90;;;;;;5056166;28;20170;-72
2021/05/28 05:10:03;;;;;;;17.03;13.53;;;11.20;99.90;;;;;;5055516;28;20419;-72
2021/05/28 05:12:29;;;;;;;16.43;13.30;;;11.20;99.90;;;;;;5055296;28;20544;-72
2021/05/28 05:14:55;;;;;;;21.10;13.23;;;11.20;99.90;;;;;;5056060;28;20890;-72
2021/05/28 05:17:20;;;;;;;15.27;13.50;;;11.20;99.90;;;;;;5053823;28;20435;-72
2021/05/28 05:19:46;;;;;;;18.97;14.33;;;11.20;99.90;;;;;;5052727;28;20261;-72
2021/05/28 05:22:12;;;;;;;18.43;13.77;;;11.20;99.90;;;;;;5054134;28;20240;-72
2021/05/28 05:24:37;;;;;;;17.07;14.30;;;11.20;99.90;;;;;;5064847;28;20190;-73
2021/05/28 05:27:03;;;;;;;15.83;13.20;;;11.40;99.90;;;;;;5076806;28;20166;-72
2021/05/28 05:29:28;;;;;;;16.37;13.50;;;11.40;99.90;;;;;;5077988;28;20175;-73
2021/05/28 05:31:54;;;;;;;16.50;14.33;;;11.50;99.90;;;;;;5055884;28;20917;-73
2021/05/28 05:34:20;;;;;;;19.30;15.17;;;11.60;99.90;;;;;;5054313;28;20197;-72
2021/05/28 05:36:46;;;;;;;18.97;16.10;;;11.60;99.90;;;;;;5055709;28;20252;-72
2021/05/28 05:39:11;;;;;;;18.23;14.60;;;11.60;99.90;;;;;;5055308;28;20424;-72
2021/05/28 05:41:37;;;;;;;20.33;15.83;;;11.70;99.90;;;;;;5056198;28;20205;-72
2021/05/28 05:44:03;;;;;;;21.10;14.50;;;11.80;99.90;;;;;;5054460;28;20251;-73
2021/05/28 05:46:29;;;;;;;18.90;15.23;;;11.90;99.90;;;;;;5055423;28;20186;-73
2021/05/28 05:48:54;;;;;;;16.73;14.37;;;11.90;99.90;;;;;;5055214;28;20413;-71
2021/05/28 05:51:20;;;;;;;20.60;15.20;;;11.70;99.90;;;;;;5055178;28;20181;-71
2021/05/28 05:53:45;;;;;;;20.10;14.47;;;11.60;99.90;;;;;;5054726;28;20519;-72
2021/05/28 05:56:11;;;;;;;21.63;16.03;;;11.70;99.90;;;;;;5055235;28;20190;-72
2021/05/28 05:58:37;;;;;;;18.97;14.13;;;11.70;99.90;;;;;;5054766;28;20667;-71
2021/05/28 06:01:02;;;;;;;17.17;14.50;;;11.70;99.90;;;;;;5055384;28;20512;-73
2021/05/28 06:03:28;;;;;;;20.10;13.23;;;11.70;99.90;;;;;;5054479;28;20288;-73
2021/05/28 06:05:53;;;;;;;18.97;16.10;;;11.80;99.90;;;;;;5054649;28;20404;-72
2021/05/28 06:08:19;;;;;;;18.33;14.40;;;11.90;99.90;;;;;;5055471;28;20420;-72
2021/05/28 06:10:45;;;;;;;15.87;12.90;;;11.80;99.90;;;;;;5054525;28;20198;-73
2021/05/28 06:13:10;;;;;;;13.10;11.70;;;11.90;99.90;;;;;;5054650;28;20174;-72
2021/05/28 06:15:36;;;;;;;13.33;11.20;;;11.90;99.90;;;;;;5054959;28;20194;-72
2021/05/28 06:18:02;;;;;;;13.23;11.57;;;11.90;99.90;;;;;;5054678;28;20186;-72
2021/05/28 06:20:29;;;;;;;12.33;10.00;;;12.00;99.90;;;;;;5054573;28;20481;-73
2021/05/28 06:22:56;;;;;;;10.73;8.60;;;12.10;99.90;;;;;;5054686;28;20198;-72
2021/05/28 06:25:22;;;;;;;9.63;8.53;;;12.10;99.90;;;;;;5054572;28;20447;-73
2021/05/28 06:27:48;;;;;;;9.70;8.70;;;12.20;99.90;;;;;;5054559;28;20413;-72
2021/05/28 06:30:14;;;;;;;11.40;9.60;;;12.20;99.90;;;;;;5054061;28;20440;-72
2021/05/28 06:32:40;;;;;;;8.97;8.03;;;12.20;99.90;;;;;;5054455;28;20175;-72
2021/05/28 06:35:07;;;;;;;10.60;8.13;;;12.20;99.90;;;;;;5055846;28;20428;-72
2021/05/28 06:37:32;;;;;;;15.07;11.40;;;12.30;99.90;;;;;;5054048;28;20532;-72
2021/05/28 06:39:58;;;;;;;10.03;8.70;;;12.30;99.90;;;;;;5054655;28;20424;-72
2021/05/28 06:42:24;;;;;;;12.53;9.70;;;12.30;99.90;;;;;;5054147;28;20217;-72
2021/05/28 06:44:49;;;;;;;10.40;8.57;;;12.30;99.90;;;;;;5054056;28;20194;-72
2021/05/28 06:47:16;;;;;;;12.33;8.63;;;12.20;99.90;;;;;;5053889;28;20209;-72
2021/05/28 06:49:42;;;;;;;10.47;9.23;;;12.30;99.90;;;;;;5052944;28;20541;-72
2021/05/28 06:52:08;;;;;;;10.60;9.50;;;12.40;99.90;;;;;;5053691;28;20778;-72
2021/05/28 06:54:34;;;;;;;11.07;9.87;;;12.40;99.90;;;;;;5053864;28;20437;-72
2021/05/28 06:56:59;;;;;;;11.00;9.47;;;12.60;99.90;;;;;;5053804;28;20217;-72
2021/05/28 06:59:25;;;;;;;11.53;9.37;;;12.70;99.90;;;;;;5054020;28;20235;-72
2021/05/28 07:01:50;;;;;;;12.00;9.37;;;12.90;99.90;;;;;;5054166;28;20254;-72
2021/05/28 07:04:16;;;;;;;11.13;8.77;;;13.00;99.90;;;;;;5054396;28;20188;-72
2021/05/28 07:06:42;;;;;;;10.93;8.90;;;13.10;99.90;;;;;;5053606;28;20190;-72
2021/05/28 07:09:08;;;;;;;9.67;8.23;;;13.20;99.90;;;;;;5053921;28;20272;-71
2021/05/28 07:11:33;;;;;;;11.13;8.47;;;13.20;99.90;;;;;;5054084;28;20445;-73
2021/05/28 07:13:59;;;;;;;16.93;8.93;;;13.30;99.90;;;;;;5054163;28;20224;-72
2021/05/28 07:16:25;;;;;;;8.23;7.40;;;13.50;99.90;;;;;;5053929;28;20190;-73
2021/05/28 07:18:51;;;;;;;10.90;9.03;;;13.70;99.90;;;;;;5053851;28;20198;-72
2021/05/28 07:21:17;;;;;;;10.10;8.63;;;13.80;99.90;;;;;;5053715;28;20405;-73
2021/05/28 07:23:42;;;;;;;8.47;7.50;;;13.90;99.90;;;;;;5053637;28;20627;-73
2021/05/28 07:26:08;;;;;;;11.10;8.10;;;13.90;99.90;;;;;;5053834;28;20256;-72
2021/05/28 07:28:33;;;;;;;10.27;8.53;;;14.00;99.90;;;;;;5052210;28;20240;-72
2021/05/28 07:31:00;;;;;;;9.13;8.10;;;14.10;99.90;;;;;;5054115;28;20198;-71
2021/05/28 07:33:26;;;;;;;9.97;8.13;;;14.20;99.90;;;;;;5055550;28;20237;-72
2021/05/28 07:35:52;;;;;;;8.53;7.57;;;14.30;99.90;;;;;;5057176;28;20440;-73
2021/05/28 07:38:17;;;;;;;10.90;8.70;;;14.30;99.90;;;;;;5057196;28;20767;-73
2021/05/28 07:40:43;;;;;;;10.50;8.50;;;14.30;99.90;;;;;;5057225;28;20427;-72
2021/05/28 07:43:09;;;;;;;9.70;8.47;;;14.40;99.90;;;;;;5054193;28;20520;-72
2021/05/28 07:45:35;;;;;;;9.63;7.13;;;14.60;99.90;;;;;;5053057;28;20494;-72
2021/05/28 07:48:00;;;;;;;12.33;8.63;;;14.80;99.90;;;;;;5053061;28;20198;-72
2021/05/28 07:50:26;;;;;;;5.80;5.23;;;14.90;99.90;;;;;;5053593;28;20176;-73
2021/05/28 07:52:52;;;;;;;5.73;5.13;;;14.90;99.90;;;;;;5052533;28;20704;-72
2021/05/28 07:55:18;;;;;;;5.30;4.80;;;14.80;99.90;;;;;;5053062;28;20432;-71
2021/05/28 07:57:44;;;;;;;5.80;5.20;;;14.80;99.90;;;;;;5053812;28;20189;-73
2021/05/28 08:00:10;;;;;;;5.80;5.13;;;14.70;99.90;;;;;;5056948;28;20801;-72
2021/05/28 08:02:36;;;;;;;8.13;5.60;;;14.60;99.90;;;;;;5056459;28;20457;-73
2021/05/28 08:05:02;;;;;;;8.77;5.00;;;14.50;99.90;;;;;;5057614;28;20433;-73
2021/05/28 08:07:28;;;;;;;7.13;4.97;;;14.50;99.90;;;;;;5056390;28;20533;-73
2021/05/28 08:09:54;;;;;;;5.63;5.13;;;14.50;99.90;;;;;;5056692;28;20405;-72
2021/05/28 08:12:19;;;;;;;8.83;4.90;;;14.70;99.90;;;;;;5057298;28;20221;-74
2021/05/28 08:14:45;;;;;;;5.73;5.17;;;14.60;99.90;;;;;;5056601;28;20206;-73
2021/05/28 08:17:11;;;;;;;6.97;5.03;;;14.90;99.90;;;;;;5056785;28;20502;-74
2021/05/28 08:19:36;;;;;;;5.57;5.00;;;15.00;99.90;;;;;;5057226;28;20571;-73
2021/05/28 08:22:02;;;;;;;6.10;5.50;;;15.00;99.90;;;;;;5056585;28;20518;-73
2021/05/28 08:24:27;;;;;;;7.33;5.60;;;15.10;99.90;;;;;;5056491;28;20186;-73
2021/05/28 08:26:53;;;;;;;5.00;4.60;;;15.00;99.90;;;;;;5056983;28;20615;-72
2021/05/28 08:29:19;;;;;;;5.27;4.37;;;14.80;99.90;;;;;;5055122;28;20535;-73
2021/05/28 08:31:44;;;;;;;4.13;3.73;;;14.60;99.90;;;;;;5057799;28;20524;-73
2021/05/28 08:34:10;;;;;;;6.63;5.93;;;14.50;99.90;;;;;;5056250;28;20178;-72
2021/05/28 08:36:36;;;;;;;4.87;4.47;;;14.40;99.90;;;;;;5057487;28;20253;-72
2021/05/28 08:39:03;;;;;;;5.30;4.40;;;14.50;99.90;;;;;;5056726;28;20413;-73
2021/05/28 08:41:29;;;;;;;4.47;4.07;;;14.50;99.90;;;;;;5056962;28;20185;-73
2021/05/28 08:43:55;;;;;;;7.77;4.50;;;14.50;99.90;;;;;;5056242;28;20397;-72
2021/05/28 08:46:21;;;;;;;8.70;4.70;;;14.60;99.90;;;;;;5056583;28;20540;-72
2021/05/28 08:48:51;;;;;;;5.13;4.63;;;14.70;99.90;;;;;;5056536;28;20166;-72
2021/05/28 08:51:18;;;;;;;4.03;3.73;;;14.80;99.90;;;;;;5054988;28;20424;-73
2021/05/28 08:53:43;;;;;;;6.13;4.53;;;14.90;99.90;;;;;;5056509;28;20413;-71
2021/05/28 08:56:10;;;;;;;6.97;4.40;;;15.00;99.90;;;;;;5056314;28;20433;-74
2021/05/28 08:58:36;;;;;;;6.03;3.80;;;15.20;99.90;;;;;;5056045;28;20633;-73
2021/05/28 09:01:02;;;;;;;3.70;3.30;;;15.40;99.90;;;;;;5054326;28;20447;-74
2021/05/28 09:03:30;;;;;;;5.37;4.10;;;15.60;99.90;;;;;;5056236;28;20448;-73
2021/05/28 09:06:01;;;;;;;5.97;4.50;;;15.50;99.60;;;;;;5056086;28;20421;-72
2021/05/28 09:08:34;;;;;;;7.00;5.20;;;15.50;99.90;;;;;;5055824;28;20417;-72
2021/05/28 09:11:13;;;;;;;5.80;5.20;;;15.50;99.90;;;;;;5055597;28;20739;-72
2021/05/28 09:13:49;;;;;;;5.70;4.53;;;15.30;99.90;;;;;;5054600;28;20419;-73
2021/05/28 09:16:17;;;;;;;6.57;4.77;;;15.40;99.90;;;;;;5055844;28;20784;-72
2021/05/28 09:18:47;;;;;;;6.07;4.80;;;15.50;99.90;;;;;;5055946;28;20431;-72
2021/05/28 09:21:28;;;;;;;6.50;5.83;;;15.80;99.90;;;;;;5055164;28;20401;-73
2021/05/28 09:23:54;;;;;;;5.83;5.33;;;15.80;99.70;;;;;;5055325;28;20436;-73
2021/05/28 09:26:20;;;;;;;6.90;5.70;;;15.90;99.70;;;;;;5055752;28;20429;-72
2021/05/28 09:28:49;;;;;;;6.10;4.50;;;15.90;98.70;;;;;;5056026;28;20491;-72
2021/05/28 09:31:18;;;;;;;5.83;5.33;;;15.80;98.50;;;;;;5055704;28;20409;-72
2021/05/28 09:33:48;;;;;;;7.33;6.70;;;15.90;98.80;;;;;;5054922;28;20795;-73
2021/05/28 09:36:23;;;;;;;5.63;5.13;;;16.00;99.00;;;;;;5055314;28;20523;-72
2021/05/28 09:39:05;;;;;;;5.80;5.20;;;16.00;98.70;;;;;;5056195;28;20404;-72
2021/05/28 09:41:40;;;;;;;5.67;5.13;;;15.60;98.70;;;;;;5035823;28;20411;-72
2021/05/28 09:44:31;;;;;;;6.00;5.40;;;15.50;99.00;;;;;;5041666;28;20899;-72
2021/05/28 09:46:56;;;;;;;5.73;5.10;;;15.50;99.30;;;;;;5055071;28;20419;-72
2021/05/28 09:49:25;;;;;;;6.83;5.40;;;15.80;98.60;;;;;;5055293;28;20540;-72
2021/05/28 09:52:15;;;;;;;6.13;5.53;;;15.70;98.60;;;;;;5054627;28;20631;-72
2021/05/28 09:54:53;;;;;;;9.87;5.40;;;15.60;98.90;;;;;;5054661;28;20440;-72
2021/05/28 09:57:37;;;;;;;7.53;5.50;;;15.80;98.80;;;;;;5039053;28;20413;-72
2021/05/28 10:00:14;;;;;;;4.77;4.37;;;15.80;98.40;;;;;;5054508;28;20456;-73
2021/05/28 10:02:43;;;;;;;7.33;5.03;;;15.80;98.40;;;;;;5054283;28;20476;-73
2021/05/28 10:05:10;;;;;;;5.83;5.33;;;15.90;97.90;;;;;;5053449;28;20444;-73
2021/05/28 10:07:39;;;;;;;5.57;5.07;;;15.90;98.50;;;;;;5053257;28;20428;-73
2021/05/28 10:10:05;;;;;;;6.83;5.53;;;16.00;98.10;;;;;;5054837;28;20569;-73
2021/05/28 10:12:31;;;;;;;5.40;4.30;;;15.90;98.00;;;;;;5054937;28;20743;-71
2021/05/28 10:14:57;;;;;;;5.20;4.70;;;16.10;98.00;;;;;;5054681;28;20441;-72
2021/05/28 10:17:23;;;;;;;6.13;4.87;;;16.40;97.60;;;;;;5054307;28;20232;-72
2021/05/28 10:19:49;;;;;;;3.83;3.47;;;16.50;96.20;;;;;;5054011;28;20175;-72
2021/05/28 10:22:17;;;;;;;3.93;3.43;;;16.60;94.70;;;;;;5053096;28;20431;-73
2021/05/28 10:24:43;;;;;;;5.60;4.33;;;16.70;94.10;;;;;;5053978;28;20425;-72
2021/05/28 10:27:09;;;;;;;4.40;4.00;;;16.90;93.70;;;;;;5054072;28;20508;-70
2021/05/28 10:29:36;;;;;;;4.30;3.80;;;16.90;93.90;;;;;;5054790;28;20865;-72
2021/05/28 10:32:09;;;;;;;3.90;3.60;;;16.70;93.80;;;;;;5054185;28;20193;-72
2021/05/28 10:35:04;;;;;;;5.23;4.53;;;16.60;93.60;;;;;;5053878;28;20476;-72
2021/05/28 10:37:30;;;;;;;6.00;4.23;;;16.60;93.80;;;;;;5054381;28;20432;-72
2021/05/28 10:39:56;;;;;;;6.33;4.03;;;16.60;94.00;;;;;;5054507;28;20450;-72
2021/05/28 10:42:22;;;;;;;4.10;3.70;;;16.50;93.90;;;;;;5054367;28;20459;-72
2021/05/28 10:44:48;;;;;;;4.17;3.73;;;16.60;94.20;;;;;;5054029;28;20424;-72
2021/05/28 10:47:14;;;;;;;4.37;3.97;;;16.30;93.90;;;;;;5054366;28;20428;-72
2021/05/28 10:49:48;;;;;;;4.57;4.17;;;16.10;94.00;;;;;;5056580;28;20404;-71
2021/05/28 10:52:13;;;;;;;4.37;3.97;;;16.10;95.20;;;;;;5053941;28;20175;-72
2021/05/28 10:54:42;;;;;;;5.40;4.47;;;16.20;94.70;;;;;;5053333;28;20424;-72
2021/05/28 10:57:32;;;;;;;4.73;3.73;;;16.20;94.80;;;;;;5053973;28;20170;-72
2021/05/28 11:00:00;;;;;;;4.70;4.30;;;16.30;94.50;;;;;;5053700;28;20437;-73
2021/05/28 11:02:55;;;;;;;5.77;4.30;;;16.50;94.40;;;;;;5053451;28;20448;-72
2021/05/28 11:05:50;;;;;;;3.93;3.63;;;16.60;93.50;;;;;;5053453;28;20961;-72
2021/05/28 11:08:37;;;;;;;3.77;3.47;;;16.80;93.70;;;;;;5054035;28;20417;-72
2021/05/28 11:11:06;;;;;;;4.50;4.10;;;17.00;93.40;;;;;;5053896;28;20897;-72
2021/05/28 11:13:31;;;;;;;4.53;4.13;;;17.10;93.30;;;;;;5053779;28;20425;-70
2021/05/28 11:15:58;;;;;;;4.40;4.00;;;17.30;93.00;;;;;;5052276;28;20500;-72
2021/05/28 11:18:30;;;;;;;7.50;4.30;;;17.40;92.70;;;;;;5053603;28;20534;-72
2021/05/28 11:21:17;;;;;;;6.17;4.27;;;17.10;92.70;;;;;;5053308;28;20433;-72
2021/05/28 11:23:45;;;;;;;5.47;4.97;;;17.10;92.80;;;;;;5051577;28;20888;-72
2021/05/28 11:26:15;;;;;;;4.70;4.30;;;17.10;93.10;;;;;;5053318;28;20753;-72
2021/05/28 11:28:56;;;;;;;4.73;4.23;;;16.90;92.90;;;;;;5053688;28;20404;-73
2021/05/28 11:31:24;;;;;;;4.93;4.00;;;17.00;92.90;;;;;;5053338;28;20423;-73
2021/05/28 11:34:00;;;;;;;5.57;4.50;;;17.00;92.60;;;;;;5050615;28;20413;-72
2021/05/28 11:36:31;;;;;;;4.63;4.10;;;16.80;92.10;;;;;;5033540;28;20445;-72
2021/05/28 11:38:59;;;;;;;4.10;3.70;;;16.70;92.40;;;;;;5033831;28;20414;-72
2021/05/28 11:42:04;;;;;;;6.93;4.30;;;16.80;93.00;;;;;;5033541;28;20437;-73
2021/05/28 11:44:33;;;;;;;4.80;4.40;;;17.00;92.90;;;;;;5033535;28;20457;-72
2021/05/28 11:46:59;;;;;;;5.10;3.77;;;17.20;92.10;;;;;;5053430;28;20826;-72
2021/05/28 11:49:25;;;;;;;5.20;4.07;;;17.40;91.80;;;;;;5053536;28;20411;-72
2021/05/28 11:52:06;;;;;;;5.50;4.03;;;17.50;92.00;;;;;;5053762;28;20492;-73
2021/05/28 11:54:36;;;;;;;5.43;4.93;;;17.30;92.00;;;;;;5052851;28;20468;-73
2021/05/28 11:57:12;;;;;;;4.37;3.97;;;17.20;91.60;;;;;;5055354;28;20444;-73
2021/05/28 11:59:51;;;;;;;4.60;4.20;;;17.10;92.00;;;;;;5061108;28;20416;-73
2021/05/28 12:02:36;;;;;;;5.47;5.00;;;17.10;92.30;;;;;;5072824;28;20444;-72
2021/05/28 12:05:04;;;;;;;5.30;4.80;;;17.00;92.20;;;;;;5069027;28;20436;-73
2021/05/28 12:07:30;;;;;;;5.80;4.50;;;17.00;92.10;;;;;;5071231;28;20443;-72
2021/05/28 12:10:03;;;;;;;5.45;4.95;;;16.90;91.70;;;;;;5069652;28;20409;-73
2021/05/28 12:13:00;;;;;;;5.80;4.83;;;17.00;91.50;;;;;;5070957;28;20181;-74
2021/05/28 12:15:40;;;;;;;5.85;4.70;;;17.10;91.80;;;;;;5066919;28;20408;-73
2021/05/28 12:18:21;;;;;;;5.33;4.83;;;17.20;92.00;;;;;;5068210;28;20201;-73
2021/05/28 12:20:53;;;;;;;6.17;4.13;;;17.30;91.50;;;;;;5052100;28;20413;-72
2021/05/28 12:23:21;;;;;;;4.50;4.10;;;17.40;91.10;;;;;;5053106;28;20448;-71
2021/05/28 12:25:50;;;;;;;6.73;4.00;;;17.50;91.10;;;;;;5052996;28;20511;-73
2021/05/28 12:28:28;;;;;;;4.67;4.27;;;17.60;90.50;;;;;;5052570;28;20445;-73
2021/05/28 12:30:57;;;;;;;3.80;3.47;;;17.50;89.80;;;;;;5053075;28;20420;-73
2021/05/28 12:33:30;;;;;;;4.13;3.77;;;17.50;90.10;;;;;;5052536;28;20852;-74
2021/05/28 12:35:59;;;;;;;4.57;3.50;;;17.60;90.60;;;;;;5053370;28;20424;-72
2021/05/28 12:38:31;;;;;;;3.40;3.10;;;17.60;87.00;;;;;;5052473;28;20452;-73
2021/05/28 12:40:57;;;;;;;4.17;3.10;;;17.70;85.80;;;;;;5053030;28;20401;-71